Time;durP1;ratioP1;P1;durP2;ratioP2;P2;SDS_P1;SDS_P2;PMS_P1;PMS_P2;Temp;Humidity;BMP_temperature;BMP_pressure;BME280_temperature;BME280_humidity;BME280_pressure;Samples;Min_cycle;Max_cycle;Signal;HPM_P1;HPM_P2
2022/12/04 00:00:07;;;;;;;21.92;13.18;;;;;;;-1.51;100.00;92415.00;2112829;28;20358;-76
2022/12/04 00:01:15;;;;;;;24.23;13.70;;;;;;;-1.56;100.00;92412.69;2111558;28;20124;-76
2022/12/04 00:02:16;;;;;;;25.38;13.68;;;;;;;-1.42;100.00;92417.34;2111630;28;20031;-76
2022/12/04 00:03:17;;;;;;;22.88;13.98;;;;;;;-1.46;100.00;92414.66;2111478;28;20452;-75
2022/12/04 00:04:18;;;;;;;24.55;14.25;;;;;;;-1.42;100.00;92415.47;2103347;28;20721;-76
2022/12/04 00:05:19;;;;;;;25.88;13.80;;;;;;;-1.43;100.00;92407.97;2111931;28;20099;-76
2022/12/04 00:06:21;;;;;;;28.60;14.80;;;;;;;-1.49;100.00;92406.75;2112326;28;20031;-77
2022/12/04 00:07:22;;;;;;;25.90;14.20;;;;;;;-1.46;100.00;92408.69;2111737;28;20111;-75
2022/12/04 00:08:23;;;;;;;21.88;13.68;;;;;;;-1.46;100.00;92403.44;2112493;28;20036;-77
2022/12/04 00:09:24;;;;;;;27.15;14.88;;;;;;;-1.33;100.00;92400.22;2113242;28;20039;-78
2022/12/04 00:10:25;;;;;;;26.92;15.00;;;;;;;-1.41;100.00;92398.63;2111872;28;20024;-77
2022/12/04 00:11:30;;;;;;;31.33;15.43;;;;;;;-1.46;100.00;92404.19;2111826;28;20111;-78
2022/12/04 00:12:33;;;;;;;27.33;15.40;;;;;;;-1.50;100.00;92405.25;2112175;28;20426;-77
2022/12/04 00:13:34;;;;;;;27.15;14.60;;;;;;;-1.42;100.00;92412.09;2111690;28;20026;-77
2022/12/04 00:14:35;;;;;;;28.42;15.65;;;;;;;-1.60;100.00;92406.66;2111660;28;20818;-78
2022/12/04 00:15:41;;;;;;;26.33;15.60;;;;;;;-1.60;100.00;92407.41;2112212;28;20365;-77
2022/12/04 00:16:43;;;;;;;30.67;15.55;;;;;;;-1.46;100.00;92409.44;2111245;28;20582;-76
2022/12/04 00:17:47;;;;;;;27.83;15.57;;;;;;;-1.47;100.00;92404.56;2111870;28;20093;-77
2022/12/04 00:18:49;;;;;;;26.48;14.45;;;;;;;-1.44;100.00;92407.22;2112091;28;20026;-76
2022/12/04 00:19:50;;;;;;;28.05;15.32;;;;;;;-1.46;100.00;92403.44;2112066;28;20207;-76
2022/12/04 00:20:51;;;;;;;27.83;14.95;;;;;;;-1.46;100.00;92398.94;2105385;28;20028;-76
2022/12/04 00:21:52;;;;;;;28.23;16.10;;;;;;;-1.58;100.00;92399.94;2105748;28;20024;-76
2022/12/04 00:22:53;;;;;;;27.55;14.95;;;;;;;-1.59;100.00;92402.91;2114241;28;20077;-77
2022/12/04 00:23:53;;;;;;;26.70;14.98;;;;;;;-1.59;100.00;92397.66;2114734;28;20027;-78
2022/12/04 00:24:54;;;;;;;29.75;15.27;;;;;;;-1.54;100.00;92397.34;2114134;28;20078;-76
2022/12/04 00:26:01;;;;;;;29.20;14.88;;;;;;;-1.46;100.00;92398.19;2105093;28;20036;-76
2022/12/04 00:27:02;;;;;;;30.40;15.40;;;;;;;-1.43;100.00;92387.75;2106396;28;20023;-76
2022/12/04 00:28:03;;;;;;;26.88;15.95;;;;;;;-1.59;100.00;92389.81;2114312;28;20024;-76
2022/12/04 00:29:04;;;;;;;25.55;15.52;;;;;;;-1.56;100.00;92386.47;2114516;28;20108;-76
2022/12/04 00:30:06;;;;;;;26.92;14.73;;;;;;;-1.68;100.00;92392.69;2114476;28;20023;-76
2022/12/04 00:31:09;;;;;;;24.90;14.50;;;;;;;-1.61;100.00;92392.03;2114464;28;20023;-77
2022/12/04 00:32:11;;;;;;;25.88;14.82;;;;;;;-1.62;100.00;92390.53;2114109;28;20106;-78
2022/12/04 00:33:12;;;;;;;25.65;14.95;;;;;;;-1.61;100.00;92392.03;2113801;27;20024;-76
2022/12/04 00:34:13;;;;;;;27.30;14.68;;;;;;;-1.58;100.00;92393.94;2114544;28;20115;-77
2022/12/04 00:35:14;;;;;;;27.52;15.80;;;;;;;-1.58;100.00;92391.31;2114501;28;20153;-78
2022/12/04 00:36:19;;;;;;;25.00;14.50;;;;;;;-1.50;100.00;92386.91;2114562;28;20462;-76
2022/12/04 00:37:20;;;;;;;26.38;14.82;;;;;;;-1.65;100.00;92399.09;2114371;28;20042;-77
2022/12/04 00:38:21;;;;;;;27.75;14.80;;;;;;;-1.59;100.00;92393.19;2113807;28;20038;-77
2022/12/04 00:39:22;;;;;;;28.67;15.27;;;;;;;-1.58;100.00;92399.16;2114524;28;20027;-77
2022/12/04 00:40:23;;;;;;;26.92;15.48;;;;;;;-1.50;100.00;92400.78;2113640;28;20024;-76
2022/12/04 00:41:26;;;;;;;27.63;15.23;;;;;;;-1.40;100.00;92402.78;2113922;28;20114;-78
2022/12/04 00:42:27;;;;;;;24.27;14.73;;;;;;;-1.47;100.00;92410.53;2114037;28;20514;-76
2022/12/04 00:43:30;;;;;;;25.35;14.35;;;;;;;-1.51;100.00;92409.75;2105692;28;20088;-78
2022/12/04 00:44:31;;;;;;;24.42;14.25;;;;;;;-1.58;100.00;92412.28;2105927;28;20039;-78
2022/12/04 00:45:32;;;;;;;28.05;15.50;;;;;;;-1.59;100.00;92416.00;2114102;28;20062;-78
2022/12/04 00:46:33;;;;;;;27.85;15.95;;;;;;;-1.57;100.00;92408.56;2114685;28;20477;-76
2022/12/04 00:47:34;;;;;;;27.55;15.27;;;;;;;-1.51;100.00;92412.38;2114640;28;20038;-76
2022/12/04 00:48:35;;;;;;;23.85;14.70;;;;;;;-1.36;100.00;92397.53;2113640;28;20023;-76
2022/12/04 00:49:36;;;;;;;26.52;15.60;;;;;;;-1.38;100.00;92400.53;2114024;28;20073;-76
2022/12/04 00:50:37;;;;;;;30.60;15.73;;;;;;;-1.37;100.00;92411.78;2113752;28;20377;-75
2022/12/04 00:51:38;;;;;;;26.35;14.43;;;;;;;-1.35;100.00;92420.06;2113446;28;20111;-76
2022/12/04 00:52:39;;;;;;;24.27;14.02;;;;;;;-1.47;100.00;92407.94;2114077;28;20173;-75
2022/12/04 00:53:41;;;;;;;29.08;14.43;;;;;;;-1.57;100.00;92411.94;2114036;27;20024;-77
2022/12/04 00:54:42;;;;;;;28.45;15.20;;;;;;;-1.64;100.00;92418.94;2114271;28;20063;-76
2022/12/04 00:55:43;;;;;;;26.63;15.98;;;;;;;-1.67;100.00;92409.16;2114382;28;20023;-76
2022/12/04 00:56:44;;;;;;;27.20;16.33;;;;;;;-1.64;100.00;92411.09;2113468;28;20020;-75
2022/12/04 00:57:45;;;;;;;27.30;15.43;;;;;;;-1.43;100.00;92407.97;2113696;28;20019;-75
2022/12/04 00:58:46;;;;;;;28.42;16.10;;;;;;;-1.48;100.00;92400.44;2104466;28;20425;-76
2022/12/04 00:59:47;;;;;;;29.98;15.48;;;;;;;-1.54;100.00;92398.13;2105322;28;20048;-78
2022/12/04 01:00:48;;;;;;;26.27;15.23;;;;;;;-1.55;100.00;92399.22;2114455;28;20034;-76
2022/12/04 01:01:50;;;;;;;23.70;15.23;;;;;;;-1.56;100.00;92402.22;2105105;28;20069;-76
2022/12/04 01:02:51;;;;;;;28.73;15.65;;;;;;;-1.61;100.00;92400.66;2105440;28;20117;-76
2022/12/04 01:03:54;;;;;;;23.63;14.63;;;;;;;-1.69;100.00;92399.06;2113529;28;20404;-76
2022/12/04 01:04:55;;;;;;;27.35;15.18;;;;;;;-1.58;100.00;92392.09;2114127;28;20028;-77
2022/12/04 01:05:56;;;;;;;25.70;15.07;;;;;;;-1.55;100.00;92393.97;2114401;27;20028;-76
2022/12/04 01:06:57;;;;;;;27.80;15.65;;;;;;;-1.63;100.00;92392.38;2113669;28;20080;-78
2022/12/04 01:07:58;;;;;;;26.77;14.68;;;;;;;-1.63;100.00;92405.47;2105428;28;20024;-78
2022/12/04 01:09:00;;;;;;;25.65;13.65;;;;;;;-1.50;100.00;92397.41;2113724;28;20058;-76
2022/12/04 01:10:02;;;;;;;26.40;15.35;;;;;;;-1.49;100.00;92410.16;2114113;28;20476;-78
2022/12/04 01:11:06;;;;;;;25.58;14.45;;;;;;;-1.53;100.00;92407.50;2113605;28;20020;-77
2022/12/04 01:12:07;;;;;;;25.95;14.38;;;;;;;-1.47;100.00;92412.41;2113831;28;20023;-78
2022/12/04 01:13:09;;;;;;;25.88;14.57;;;;;;;-1.47;100.00;92413.16;2114335;28;20059;-79
2022/12/04 01:14:10;;;;;;;24.35;14.23;;;;;;;-1.45;100.00;92415.41;2114220;28;20026;-78
2022/12/04 01:15:11;;;;;;;31.60;15.23;;;;;;;-1.57;100.00;92414.56;2113783;28;20141;-78
2022/12/04 01:16:18;;;;;;;27.08;15.63;;;;;;;-1.61;100.00;92411.13;2113816;28;20053;-77
2022/12/04 01:17:19;;;;;;;23.42;14.10;;;;;;;-1.60;100.00;92407.41;2112813;28;20263;-78
2022/12/04 01:18:20;;;;;;;22.23;13.73;;;;;;;-1.48;100.00;92416.16;2114005;28;20067;-78
2022/12/04 01:19:21;;;;;;;24.55;14.43;;;;;;;-1.60;100.00;92417.13;2113753;28;20027;-79
2022/12/04 01:20:22;;;;;;;27.38;14.45;;;;;;;-1.55;100.00;92422.06;2113693;28;20119;-79
2022/12/04 01:21:23;;;;;;;22.48;13.93;;;;;;;-1.55;100.00;92416.81;2113530;28;20043;-78
2022/12/04 01:22:24;;;;;;;23.45;14.13;;;;;;;-1.63;100.00;92415.97;2114526;28;20073;-75
2022/12/04 01:23:25;;;;;;;27.60;15.02;;;;;;;-1.67;100.00;92419.66;2116354;28;20446;-77
2022/12/04 01:24:26;;;;;;;28.88;15.27;;;;;;;-1.68;100.00;92416.28;2114344;28;20035;-77
2022/12/04 01:25:28;;;;;;;25.80;13.90;;;;;;;-1.78;100.00;92419.53;2114071;28;20059;-78
2022/12/04 01:26:29;;;;;;;26.52;15.13;;;;;;;-1.68;100.00;92418.16;2114092;28;20025;-76
2022/12/04 01:27:30;;;;;;;25.52;14.55;;;;;;;-1.66;100.00;92419.31;2113667;28;20062;-77
2022/12/04 01:28:31;;;;;;;27.83;14.80;;;;;;;-1.61;100.00;92419.00;2113660;28;20497;-77
2022/12/04 01:29:33;;;;;;;25.35;14.95;;;;;;;-1.63;100.00;92415.22;2112815;28;20110;-77
2022/12/04 01:30:33;;;;;;;26.55;15.65;;;;;;;-1.61;100.00;92423.50;2112772;28;20093;-76
2022/12/04 01:31:35;;;;;;;27.30;15.20;;;;;;;-1.74;100.00;92415.09;2114088;28;20440;-76
2022/12/04 01:32:36;;;;;;;22.83;13.68;;;;;;;-1.60;100.00;92423.13;2114208;28;20055;-78
2022/12/04 01:33:38;;;;;;;27.08;15.70;;;;;;;-1.54;100.00;92419.09;2114212;28;20030;-76
2022/12/04 01:34:39;;;;;;;30.58;15.60;;;;;;;-1.52;100.00;92419.47;2110760;28;20062;-77
2022/12/04 01:35:40;;;;;;;25.40;14.60;;;;;;;-1.57;100.00;92421.66;2108044;28;20071;-76
2022/12/04 01:36:41;;;;;;;26.60;15.50;;;;;;;-1.54;100.00;92426.97;2113945;28;20024;-76
2022/12/04 01:37:42;;;;;;;25.98;15.15;;;;;;;-1.57;100.00;92427.66;2114086;28;20453;-78
2022/12/04 01:38:43;;;;;;;28.40;15.85;;;;;;;-1.50;100.00;92426.22;2114184;28;20499;-76
2022/12/04 01:39:44;;;;;;;30.20;15.43;;;;;;;-1.65;100.00;92422.69;2113974;28;20034;-76
2022/12/04 01:40:45;;;;;;;30.02;16.05;;;;;;;-1.54;100.00;92424.34;2113705;28;20433;-76
2022/12/04 01:41:46;;;;;;;30.00;14.88;;;;;;;-1.47;100.00;92423.66;2113582;28;20020;-77
2022/12/04 01:42:47;;;;;;;33.47;15.85;;;;;;;-1.53;100.00;92420.59;2113932;28;20027;-76
2022/12/04 01:44:08;;;;;;;30.17;15.02;;;;;;;-1.62;100.00;92412.25;2113975;28;20497;-77
2022/12/04 01:45:42;;;;;;;26.67;15.05;;;;;;;-1.52;100.00;92405.63;2113985;28;20482;-76
2022/12/04 01:46:46;;;;;;;36.75;14.95;;;;;;;-1.59;100.00;92416.75;2101844;28;20036;-76
2022/12/04 01:47:47;;;;;;;32.75;15.68;;;;;;;-1.44;100.00;92415.09;2105338;28;20028;-79
2022/12/04 01:48:53;;;;;;;32.35;15.30;;;;;;;-1.50;100.00;92418.38;2105613;28;20035;-77
2022/12/04 01:49:54;;;;;;;49.63;15.75;;;;;;;-1.49;100.00;92409.38;2105434;28;20028;-76
2022/12/04 01:51:05;;;;;;;71.53;16.00;;;;;;;-1.50;100.00;92407.88;2109065;28;20077;-79
2022/12/04 01:52:23;;;;;;;125.82;16.10;;;;;;;-1.60;100.00;92407.41;2113143;28;20027;-76
2022/12/04 01:53:25;;;;;;;34.38;15.32;;;;;;;-1.50;100.00;92413.88;2113052;28;20028;-76
2022/12/04 01:54:29;;;;;;;37.88;16.30;;;;;;;-1.54;100.00;92407.84;2112947;28;20046;-76
2022/12/04 01:55:31;;;;;;;36.83;15.80;;;;;;;-1.55;100.00;92409.69;2113311;28;20024;-76
2022/12/04 01:56:39;;;;;;;33.08;16.83;;;;;;;-1.53;100.00;92399.63;2113668;28;20028;-76
2022/12/04 01:57:41;;;;;;;26.77;15.48;;;;;;;-1.57;100.00;92404.06;2113954;28;20081;-76
2022/12/04 01:58:47;;;;;;;41.70;16.13;;;;;;;-1.60;100.00;92401.41;2113585;28;20046;-76
2022/12/04 01:59:59;;;;;;;28.40;15.45;;;;;;;-1.53;100.00;92407.50;2113744;28;20031;-76
2022/12/04 02:01:03;;;;;;;26.83;15.18;;;;;;;-1.49;100.00;92398.91;2112726;28;20069;-76
2022/12/04 02:02:09;;;;;;;41.83;15.68;;;;;;;-1.53;100.00;92402.25;2096976;28;20098;-76
2022/12/04 02:03:11;;;;;;;33.67;16.48;;;;;;;-1.56;100.00;92400.34;2105801;28;20059;-77
2022/12/04 02:04:12;;;;;;;40.58;15.27;;;;;;;-1.46;100.00;92398.19;2113841;28;20023;-77
2022/12/04 02:05:18;;;;;;;30.45;15.55;;;;;;;-1.45;100.00;92389.22;2113427;28;20862;-76
2022/12/04 02:06:19;;;;;;;26.50;15.27;;;;;;;-1.39;100.00;92391.16;2113231;28;20057;-76
2022/12/04 02:07:20;;;;;;;26.10;15.07;;;;;;;-1.36;100.00;92387.06;2104874;28;20032;-77
2022/12/04 02:08:21;;;;;;;46.15;15.90;;;;;;;-1.60;100.00;92383.06;2103793;28;20544;-77
2022/12/04 02:09:22;;;;;;;32.92;15.88;;;;;;;-1.61;100.00;92392.03;2113771;28;20096;-76
2022/12/04 02:10:34;;;;;;;50.20;16.80;;;;;;;-1.63;100.00;92391.63;2113265;28;20030;-76
2022/12/04 02:11:45;;;;;;;36.25;16.33;;;;;;;-1.54;100.00;92392.88;2112453;28;20023;-75
2022/12/04 02:13:06;;;;;;;36.55;15.32;;;;;;;-1.36;100.00;92387.84;2113728;28;20024;-78
2022/12/04 02:14:36;;;;;;;29.20;16.38;;;;;;;-1.45;100.00;92383.97;2113800;28;20402;-77
2022/12/04 02:17:14;;;;;;;;;;;;;;;-1.69;100.00;92379.97;2146313;27;20558;-76
2022/12/04 02:18:40;;;;;;;38.58;15.10;;;;;;;-1.72;100.00;92373.56;2146846;27;19962;-76
2022/12/04 02:19:54;;;;;;;52.47;15.55;;;;;;;-1.61;100.00;92379.69;2147058;27;20026;-77
2022/12/04 02:21:07;;;;;;;42.85;16.33;;;;;;;-1.58;100.00;92386.84;2137935;27;20035;-76
2022/12/04 02:22:31;;;;;;;29.42;15.65;;;;;;;-1.60;100.00;92388.31;2139244;27;20358;-76
2022/12/04 02:23:53;;;;;;;61.08;15.07;;;;;;;-1.70;100.00;92381.09;2146675;27;20507;-77
2022/12/04 02:25:22;;;;;;;26.08;14.02;;;;;;;-1.52;100.00;92379.41;2146598;27;20018;-76
2022/12/04 02:26:47;;;;;;;27.90;14.30;;;;;;;-1.53;100.00;92380.53;2147010;27;20026;-78
2022/12/04 02:28:21;;;;;;;37.20;14.65;;;;;;;-1.56;100.00;92376.75;2129801;27;20118;-77
2022/12/04 02:29:25;;;;;;;29.00;14.90;;;;;;;-1.60;100.00;92378.56;2129225;27;20034;-76
2022/12/04 02:30:29;;;;;;;33.70;15.20;;;;;;;-1.63;100.00;92381.91;2129250;27;20022;-77
2022/12/04 02:31:36;;;;;;;26.98;14.10;;;;;;;-1.68;100.00;92379.59;2138394;27;20563;-78
2022/12/04 02:32:40;;;;;;;25.25;13.63;;;;;;;-1.59;100.00;92379.34;2128815;27;20011;-78
2022/12/04 02:33:58;;;;;;;33.05;13.25;;;;;;;-1.67;100.00;92380.34;2120887;27;20039;-77
2022/12/04 02:35:10;;;;;;;31.10;13.68;;;;;;;-1.92;100.00;92367.72;2133892;27;20017;-76
2022/12/04 02:36:24;;;;;;;27.30;15.07;;;;;;;-1.77;100.00;92371.25;2129008;27;20072;-75
2022/12/04 02:37:39;;;;;;;38.70;13.80;;;;;;;-1.69;100.00;92374.72;2130838;27;20057;-78
2022/12/04 02:38:49;;;;;;;46.25;14.48;;;;;;;-1.80;100.00;92370.13;2138392;27;20038;-75
2022/12/04 02:39:56;;;;;;;71.32;15.10;;;;;;;-1.77;100.00;92366.78;2128854;27;20069;-75
2022/12/04 02:41:11;;;;;;;52.08;16.02;;;;;;;-1.83;100.00;92364.84;2121183;27;20578;-76
2022/12/04 02:42:21;;;;;;;31.85;14.63;;;;;;;-1.79;100.00;92361.16;2122433;27;20028;-76
2022/12/04 02:43:42;;;;;;;56.13;16.05;;;;;;;-1.88;100.00;92360.66;2130735;27;20039;-75
2022/12/04 02:44:56;;;;;;;31.63;14.98;;;;;;;-1.81;100.00;92360.75;2138459;27;20513;-78
2022/12/04 02:45:57;;;;;;;46.67;15.77;;;;;;;-1.84;100.00;92363.34;2138606;27;20015;-76
2022/12/04 02:47:01;;;;;;;30.63;16.25;;;;;;;-1.83;100.00;92356.97;2138190;27;20034;-77
2022/12/04 02:48:06;;;;;;;59.30;17.50;;;;;;;-1.87;100.00;92356.94;2137585;27;20017;-76
2022/12/04 02:49:13;;;;;;;39.13;16.63;;;;;;;-1.83;100.00;92357.75;2138206;27;20027;-76
2022/12/04 02:50:17;;;;;;;29.58;15.60;;;;;;;-1.81;100.00;92357.38;2138211;27;20086;-77
2022/12/04 02:51:22;;;;;;;44.03;16.10;;;;;;;-1.74;100.00;92357.47;2138125;27;20468;-76
2022/12/04 02:52:41;;;;;;;34.00;16.33;;;;;;;-1.72;100.00;92355.22;2138249;27;20587;-75
2022/12/04 02:53:48;;;;;;;29.52;15.07;;;;;;;-1.70;100.00;92355.63;2128921;27;20034;-75
2022/12/04 02:54:55;;;;;;;38.42;16.27;;;;;;;-1.90;100.00;92354.28;2120165;28;20027;-75
2022/12/04 02:56:01;;;;;;;28.05;14.75;;;;;;;-1.79;100.00;92360.41;2121185;27;20586;-77
2022/12/04 02:57:05;;;;;;;30.67;15.88;;;;;;;-1.77;100.00;92358.91;2120275;28;20036;-77
2022/12/04 02:58:13;;;;;;;29.73;16.50;;;;;;;-1.73;100.00;92353.72;2123921;27;20080;-77
2022/12/04 02:59:35;;;;;;;30.17;16.48;;;;;;;-1.77;100.00;92360.78;2137989;27;20063;-77
2022/12/04 03:00:38;;;;;;;33.00;16.40;;;;;;;-1.70;100.00;92353.03;2134273;27;20104;-76
2022/12/04 03:01:45;;;;;;;30.30;15.38;;;;;;;-1.74;100.00;92357.47;2137758;27;20026;-75
2022/12/04 03:03:19;;;;;;;55.10;16.38;;;;;;;-1.67;100.00;92354.16;2138073;27;20027;-75
2022/12/04 03:04:24;;;;;;;60.50;16.27;;;;;;;-1.58;100.00;92352.00;2115642;28;20058;-76
2022/12/04 03:05:34;;;;;;;90.68;16.15;;;;;;;-1.61;100.00;92345.63;2122150;27;20456;-76
2022/12/04 03:06:38;;;;;;;61.47;15.40;;;;;;;-1.52;100.00;92345.34;2138154;27;20057;-76
2022/12/04 03:07:50;;;;;;;40.38;16.35;;;;;;;-1.62;100.00;92349.38;2137792;27;20042;-76
2022/12/04 03:08:59;;;;;;;134.55;17.20;;;;;;;-1.78;100.00;92351.44;2137450;27;20027;-76
2022/12/04 03:10:07;;;;;;;62.80;16.58;;;;;;;-1.77;100.00;92352.94;2128832;27;20749;-76
2022/12/04 03:11:08;;;;;;;35.72;15.80;;;;;;;-1.81;100.00;92352.88;2129694;27;20072;-76
2022/12/04 03:12:27;;;;;;;43.05;15.90;;;;;;;-1.74;100.00;92348.84;2138008;27;20484;-75
2022/12/04 03:13:53;;;;;;;56.70;16.45;;;;;;;-1.74;100.00;92343.63;2137676;27;20072;-76
2022/12/04 03:15:00;;;;;;;32.00;15.82;;;;;;;-1.81;100.00;92342.41;2137974;27;20464;-76
2022/12/04 03:16:14;;;;;;;34.45;17.13;;;;;;;-1.86;100.00;92342.72;2137398;27;20014;-76
2022/12/04 03:17:24;;;;;;;28.35;15.75;;;;;;;-1.90;100.00;92344.53;2128839;27;20126;-75
2022/12/04 03:18:36;;;;;;;38.38;15.43;;;;;;;-1.86;100.00;92345.34;2130964;27;20026;-75
2022/12/04 03:19:46;;;;;;;32.95;15.77;;;;;;;-1.76;100.00;92343.94;2122676;27;20043;-75
2022/12/04 03:20:52;;;;;;;31.65;16.00;;;;;;;-1.77;100.00;92348.44;2130315;27;20026;-76
2022/12/04 03:21:58;;;;;;;35.10;15.57;;;;;;;-1.81;100.00;92349.50;2138575;27;20026;-76
2022/12/04 03:23:13;;;;;;;31.73;16.83;;;;;;;-1.87;100.00;92343.09;2129015;27;20019;-76
2022/12/04 03:24:22;;;;;;;27.65;15.35;;;;;;;-1.97;100.00;92338.50;2134275;27;20023;-75
2022/12/04 03:25:31;;;;;;;28.02;15.50;;;;;;;-1.81;100.00;92346.88;2147104;27;20033;-76
2022/12/04 03:26:49;;;;;;;46.65;16.35;;;;;;;-1.85;100.00;92346.09;2146499;27;20101;-76
2022/12/04 03:27:56;;;;;;;30.80;15.73;;;;;;;-1.85;100.00;92346.84;2126319;27;20027;-76
2022/12/04 03:29:11;;;;;;;50.47;16.92;;;;;;;-1.66;100.00;92345.97;2124220;27;20826;-76
2022/12/04 03:30:20;;;;;;;36.38;15.63;;;;;;;-1.64;100.00;92346.34;2131701;27;20035;-76
2022/12/04 03:31:31;;;;;;;33.75;15.63;;;;;;;-1.77;100.00;92345.81;2129805;27;20011;-76
2022/12/04 03:32:41;;;;;;;35.25;16.17;;;;;;;-1.73;100.00;92348.50;2131924;27;20034;-76
2022/12/04 03:33:46;;;;;;;61.65;16.92;;;;;;;-1.69;100.00;92357.16;2132291;27;20038;-76
2022/12/04 03:35:00;;;;;;;128.55;17.13;;;;;;;-1.72;100.00;92359.72;2133488;27;20049;-76
2022/12/04 03:36:07;;;;;;;36.25;16.52;;;;;;;-1.79;100.00;92363.78;2132049;27;20464;-76
2022/12/04 03:37:14;;;;;;;47.05;16.73;;;;;;;-1.63;100.00;92366.19;2131279;27;20050;-76
2022/12/04 03:38:32;;;;;;;34.78;15.38;;;;;;;-1.67;100.00;92367.25;2131768;27;20030;-77
2022/12/04 03:39:40;;;;;;;32.35;16.27;;;;;;;-1.79;100.00;92369.00;2131624;27;20026;-76
2022/12/04 03:41:00;;;;;;;40.72;16.85;;;;;;;-1.83;100.00;92360.34;2114272;28;20036;-76
2022/12/04 03:42:03;;;;;;;;;;;;;;;-1.81;100.00;92360.00;2117741;27;20564;-76
2022/12/04 03:43:18;;;;;;;27.58;14.88;;;;;;;-1.75;100.00;92360.44;2125583;27;19912;-76
2022/12/04 03:44:22;;;;;;;33.28;15.18;;;;;;;-1.77;100.00;92356.31;2131877;27;20030;-76
2022/12/04 03:45:35;;;;;;;42.03;14.82;;;;;;;-1.73;100.00;92366.81;2131832;27;20023;-78
2022/12/04 03:46:50;;;;;;;40.60;15.77;;;;;;;-1.86;100.00;92365.53;2131959;27;20026;-78
2022/12/04 03:48:08;;;;;;;33.67;15.45;;;;;;;-1.69;100.00;92369.50;2131962;27;20445;-78
2022/12/04 03:49:27;;;;;;;30.30;15.55;;;;;;;-1.74;100.00;92372.44;2122300;27;20453;-77
2022/12/04 03:50:37;;;;;;;31.17;14.93;;;;;;;-1.83;100.00;92370.09;2116585;27;20027;-77
2022/12/04 03:51:53;;;;;;;32.25;14.70;;;;;;;-1.76;100.00;92375.38;2122668;27;20035;-76
2022/12/04 03:53:36;;;;;;;28.05;15.35;;;;;;;-1.81;100.00;92383.56;2114033;28;20024;-76
2022/12/04 03:54:45;;;;;;;28.02;14.60;;;;;;;-1.74;100.00;92377.66;2095834;28;20058;-76
2022/12/04 03:55:57;;;;;;;41.97;15.37;;;;;;;-1.80;100.00;92385.06;2116882;27;20104;-77
2022/12/04 03:57:05;;;;;;;39.45;15.88;;;;;;;-1.78;100.00;92382.84;2123981;27;20432;-76
2022/12/04 03:58:11;;;;;;;68.40;17.75;;;;;;;-1.83;100.00;92381.31;2131904;27;20022;-77
2022/12/04 03:59:19;;;;;;;39.10;15.70;;;;;;;-1.86;100.00;92376.03;2132033;27;20015;-76
2022/12/04 04:00:21;;;;;;;93.78;16.75;;;;;;;-1.94;100.00;92374.41;2131746;27;20037;-76
2022/12/04 04:01:29;;;;;;;55.85;16.75;;;;;;;-1.92;100.00;92377.44;2132312;27;20039;-76
2022/12/04 04:02:35;;;;;;;65.40;16.52;;;;;;;-1.85;100.00;92382.75;2122676;27;20465;-76
2022/12/04 04:03:43;;;;;;;99.07;16.67;;;;;;;-1.89;100.00;92376.72;2123752;27;20023;-77
2022/12/04 04:04:48;;;;;;;35.10;16.48;;;;;;;-1.85;100.00;92377.53;2131900;27;20018;-76
2022/12/04 04:05:55;;;;;;;30.20;16.20;;;;;;;-1.81;100.00;92378.31;2135729;27;20483;-76
2022/12/04 04:07:01;;;;;;;35.95;15.60;;;;;;;-1.77;100.00;92374.63;2140361;27;20349;-75
2022/12/04 04:09:31;;;;;;;32.05;16.42;;;;;;;-1.94;100.00;92385.66;2140529;27;20129;-75
2022/12/04 04:10:32;;;;;;;37.20;15.55;;;;;;;-1.91;100.00;92384.94;2136666;27;20031;-76
2022/12/04 04:11:39;;;;;;;25.02;15.55;;;;;;;-1.94;100.00;92380.41;2123203;27;20480;-76
2022/12/04 04:24:25;;;;;;;50.67;13.65;;;;;;;-1.86;100.00;92378.63;2114439;28;20072;-77
2022/12/04 04:25:27;;;;;;;43.03;14.73;;;;;;;-1.90;100.00;92372.59;2113907;28;20019;-76
2022/12/04 04:26:34;;;;;;;62.83;15.48;;;;;;;-1.90;100.00;92380.47;2107575;27;20038;-77
2022/12/04 04:27:35;;;;;;;48.63;16.08;;;;;;;-1.93;100.00;92370.69;2122128;27;20035;-77
2022/12/04 04:28:38;;;;;;;74.70;15.98;;;;;;;-1.96;100.00;92372.16;2122982;27;20450;-76
2022/12/04 04:29:42;;;;;;;26.63;15.43;;;;;;;-1.96;100.00;92372.16;2123003;27;20023;-76
2022/12/04 04:30:43;;;;;;;28.00;15.13;;;;;;;-1.91;100.00;92373.72;2122396;27;20422;-76
2022/12/04 04:31:56;;;;;;;39.50;15.98;;;;;;;-1.91;100.00;92371.84;2108677;27;20034;-77
2022/12/04 04:33:10;;;;;;;36.47;16.15;;;;;;;-1.90;100.00;92380.47;2115670;27;20019;-76
2022/12/04 04:34:17;;;;;;;56.10;16.38;;;;;;;-1.89;100.00;92369.66;2122961;27;20061;-76
2022/12/04 04:35:24;;;;;;;50.75;16.42;;;;;;;-1.83;100.00;92373.44;2106487;28;20024;-76
2022/12/04 04:36:34;;;;;;;37.05;16.15;;;;;;;-1.98;100.00;92371.75;2106433;28;20044;-77
2022/12/04 04:37:53;;;;;;;39.72;16.48;;;;;;;-1.94;100.00;92366.56;2105463;28;20028;-76
2022/12/04 04:39:12;;;;;;;49.40;15.82;;;;;;;-2.00;100.00;92365.38;2113806;28;20529;-76
2022/12/04 04:40:13;;;;;;;97.65;15.05;;;;;;;-2.05;100.00;92363.81;2110802;28;20028;-76
2022/12/04 04:41:18;;;;;;;33.60;15.52;;;;;;;-1.88;100.00;92358.06;2105956;28;20105;-77
2022/12/04 04:42:34;;;;;;;54.58;15.30;;;;;;;-1.71;100.00;92355.97;2116332;27;20027;-77
2022/12/04 04:43:53;;;;;;;62.33;16.63;;;;;;;-1.87;100.00;92359.56;2123310;27;20033;-76
2022/12/04 04:45:17;;;;;;;34.35;14.43;;;;;;;-1.79;100.00;92352.53;2122910;27;20019;-77
2022/12/04 04:46:32;;;;;;;35.88;15.43;;;;;;;-1.80;100.00;92354.41;2123173;27;20019;-76
2022/12/04 04:47:39;;;;;;;54.88;15.13;;;;;;;-1.83;100.00;92349.88;2121852;27;20402;-76
2022/12/04 04:48:46;;;;;;;30.35;14.52;;;;;;;-1.83;100.00;92355.13;2114747;27;20115;-77
2022/12/04 04:49:50;;;;;;;37.75;16.10;;;;;;;-1.79;100.00;92342.81;2122356;27;20023;-75
2022/12/04 04:50:52;;;;;;;39.65;16.92;;;;;;;-1.79;100.00;92345.44;2130382;27;20026;-75
2022/12/04 04:51:54;;;;;;;32.28;16.05;;;;;;;-1.76;100.00;92354.44;2130416;27;20051;-75
2022/12/04 04:53:02;;;;;;;52.22;16.58;;;;;;;-1.69;100.00;92348.53;2121670;27;20019;-74
2022/12/04 04:54:07;;;;;;;75.35;16.17;;;;;;;-1.64;100.00;92356.81;2122680;27;20042;-75
2022/12/04 04:55:09;;;;;;;56.30;16.55;;;;;;;-1.73;100.00;92361.59;2122866;27;20054;-76
2022/12/04 04:56:10;;;;;;;64.82;16.42;;;;;;;-1.83;100.00;92355.13;2122002;27;20023;-76
2022/12/04 04:57:11;;;;;;;40.90;15.35;;;;;;;-1.72;100.00;92354.47;2113343;28;20071;-76
2022/12/04 04:58:16;;;;;;;40.60;16.25;;;;;;;-1.92;100.00;92361.75;2112916;28;20048;-76
2022/12/04 04:59:17;;;;;;;91.68;16.33;;;;;;;-2.03;100.00;92367.56;2114308;27;20053;-75
2022/12/04 05:00:21;;;;;;;37.88;16.05;;;;;;;-2.00;100.00;92370.59;2113595;28;20015;-76
2022/12/04 05:01:26;;;;;;;38.35;15.27;;;;;;;-2.03;100.00;92374.69;2122213;27;20444;-78
2022/12/04 05:02:28;;;;;;;33.10;15.68;;;;;;;-1.94;100.00;92369.19;2122804;27;20031;-76
2022/12/04 05:03:30;;;;;;;31.25;14.98;;;;;;;-1.92;100.00;92369.59;2121851;27;20031;-77
2022/12/04 05:04:31;;;;;;;46.97;15.57;;;;;;;-1.91;100.00;92376.34;2122377;27;20027;-77
2022/12/04 05:05:31;;;;;;;31.50;16.73;;;;;;;-1.88;100.00;92367.78;2111187;28;20039;-77
2022/12/04 05:06:33;;;;;;;52.47;16.27;;;;;;;-1.92;100.00;92372.22;2105097;28;20055;-78
2022/12/04 05:07:34;;;;;;;33.17;15.65;;;;;;;-1.80;100.00;92361.50;2105788;28;20028;-77
2022/12/04 05:08:35;;;;;;;33.30;16.40;;;;;;;-1.79;100.00;92368.25;2113293;28;20033;-77
2022/12/04 05:09:39;;;;;;;30.45;15.20;;;;;;;-1.74;100.00;92365.31;2113415;28;20373;-77
2022/12/04 05:10:40;;;;;;;32.88;15.57;;;;;;;-1.75;100.00;92363.06;2113670;28;20019;-77
2022/12/04 05:11:41;;;;;;;50.25;16.92;;;;;;;-1.59;100.00;92364.38;2114125;28;20114;-77
2022/12/04 05:12:42;;;;;;;50.28;16.50;;;;;;;-1.74;100.00;92370.56;2114010;28;20038;-77
2022/12/04 05:13:43;;;;;;;48.83;17.30;;;;;;;-1.88;100.00;92362.53;2114034;28;20038;-75
2022/12/04 05:14:47;;;;;;;36.33;17.17;;;;;;;-1.88;100.00;92360.66;2114133;28;20028;-75
2022/12/04 05:16:02;;;;;;;32.92;16.27;;;;;;;-1.89;100.00;92361.00;2114008;28;20028;-76